createdAt,value
2023-07-11T00:00:58.391Z,101753.59
2023-07-11T00:03:25.187Z,101756.66
2023-07-11T00:06:01.620Z,101750.59
2023-07-11T00:08:28.600Z,101750.59
2023-07-11T00:10:55.328Z,101747.22
2023-07-11T00:13:22.611Z,101751.78
2023-07-11T00:15:56.782Z,101749.91
2023-07-11T00:18:23.571Z,101749.91
2023-07-11T00:20:50.111Z,101754.16
2023-07-11T00:23:16.702Z,101753.00
2023-07-11T00:25:43.213Z,101752.25
2023-07-11T00:28:09.695Z,101757.56
2023-07-11T00:30:36.208Z,101753.03
2023-07-11T00:33:02.752Z,101746.97
2023-07-11T00:35:29.702Z,101748.13
2023-07-11T00:37:56.186Z,101751.97
2023-07-11T00:40:22.681Z,101752.28
2023-07-11T00:42:54.358Z,101748.94
2023-07-11T00:45:51.718Z,101750.47
2023-07-11T00:48:21.157Z,101746.38
2023-07-11T00:50:48.327Z,101752.44
2023-07-11T00:53:15.710Z,101755.09
2023-07-11T00:55:43.668Z,101746.38
2023-07-11T00:58:10.944Z,101748.28
2023-07-11T01:00:37.499Z,101741.81
2023-07-11T01:03:04.431Z,101739.16
2023-07-11T01:05:31.061Z,101737.28
2023-07-11T01:07:57.628Z,101733.50
2023-07-11T01:10:24.227Z,101735.78
2023-07-11T01:12:50.822Z,101735.03
2023-07-11T01:15:17.429Z,101732.78
2023-07-11T01:17:43.938Z,101736.59
2023-07-11T01:20:11.190Z,101722.56
2023-07-11T01:22:39.188Z,101726.38
2023-07-11T01:25:12.181Z,101722.22
2023-07-11T01:27:40.798Z,101722.97
2023-07-11T01:30:10.818Z,101712.34
2023-07-11T01:32:38.528Z,101712.34
2023-07-11T01:35:05.946Z,101697.56
2023-07-11T01:37:33.224Z,101697.13
2023-07-11T01:39:59.725Z,101695.72
2023-07-11T01:42:27.561Z,101699.50
2023-07-11T01:44:54.529Z,101693.44
2023-07-11T01:47:21.096Z,101694.19
2023-07-11T01:49:48.044Z,101690.03
2023-07-11T01:52:20.380Z,101685.53
2023-07-11T01:54:49.950Z,101680.56
2023-07-11T01:57:16.420Z,101683.22
2023-07-11T01:59:43.368Z,101677.56
2023-07-11T02:02:11.533Z,101679.47
2023-07-11T02:04:38.787Z,101671.50
2023-07-11T02:07:06.642Z,101664.38
2023-07-11T02:09:33.258Z,101663.22
2023-07-11T02:11:59.863Z,101654.13
2023-07-11T02:14:26.409Z,101652.28
2023-07-11T02:16:54.360Z,101637.50
2023-07-11T02:19:23.138Z,101638.59
2023-07-11T02:21:50.335Z,101634.44
2023-07-11T02:24:18.590Z,101626.84
2023-07-11T02:26:45.361Z,101626.13
2023-07-11T02:29:13.056Z,101620.06
2023-07-11T02:31:39.863Z,101623.13
2023-07-11T02:34:06.658Z,101622.38
2023-07-11T02:36:33.922Z,101615.59
2023-07-11T02:39:00.438Z,101615.97
2023-07-11T02:41:27.385Z,101614.47
2023-07-11T02:43:54.283Z,101607.25
2023-07-11T02:46:21.383Z,101601.53
2023-07-11T02:48:47.943Z,101604.97
2023-07-11T02:51:14.547Z,101600.44
2023-07-11T02:53:41.096Z,101595.19
2023-07-11T02:56:07.908Z,101581.16
2023-07-11T02:58:34.607Z,101588.03
2023-07-11T03:01:03.278Z,101581.56
2023-07-11T03:03:30.150Z,101578.16
2023-07-11T03:05:57.386Z,101569.88
2023-07-11T03:08:24.086Z,101568.38
2023-07-11T03:10:50.710Z,101563.47
2023-07-11T03:13:19.217Z,101561.19
2023-07-11T03:15:46.051Z,101550.97
2023-07-11T03:18:14.138Z,101553.97
2023-07-11T03:20:42.592Z,101551.31
2023-07-11T03:23:11.558Z,101552.88
2023-07-11T03:25:38.265Z,101546.06
2023-07-11T03:28:05.042Z,101541.94
2023-07-11T03:30:32.765Z,101546.50
2023-07-11T03:35:25.748Z,101547.25
2023-07-11T03:37:52.323Z,101534.72
2023-07-11T03:40:18.973Z,101532.47
2023-07-11T03:42:45.581Z,101538.16
2023-07-11T03:45:12.282Z,101530.22
2023-07-11T03:47:38.817Z,101532.13
2023-07-11T03:50:06.134Z,101537.44
2023-07-11T03:52:32.709Z,101532.13
2023-07-11T03:54:59.179Z,101528.31
2023-07-11T03:57:25.709Z,101531.38
2023-07-11T03:59:52.209Z,101530.63
2023-07-11T04:02:18.791Z,101522.31
2023-07-11T04:04:45.589Z,101524.22
2023-07-11T04:07:12.102Z,101523.47
2023-07-11T04:09:41.936Z,101523.88
2023-07-11T04:12:09.365Z,101515.91
2023-07-11T04:14:35.978Z,101518.16
2023-07-11T04:17:02.576Z,101523.06
2023-07-11T04:19:29.137Z,101517.41
2023-07-11T04:21:56.154Z,101521.97
2023-07-11T04:24:22.659Z,101520.06
2023-07-11T04:26:49.147Z,101515.91
2023-07-11T04:29:15.685Z,101510.59
2023-07-11T04:31:42.214Z,101503.78
2023-07-11T04:34:08.697Z,101500.38
2023-07-11T04:36:35.243Z,101500.78
2023-07-11T04:39:01.778Z,101501.53
2023-07-11T04:41:28.790Z,101494.72
2023-07-11T04:43:55.378Z,101495.97
2023-07-11T04:46:21.926Z,101488.59
2023-07-11T04:48:48.447Z,101485.81
2023-07-11T04:51:15.951Z,101488.44
2023-07-11T04:53:42.508Z,101487.66
2023-07-11T04:56:10.791Z,101484.94
2023-07-11T04:58:37.667Z,101476.38
2023-07-11T05:01:10.427Z,101476.19
2023-07-11T05:03:36.985Z,101468.97
2023-07-11T05:06:05.718Z,101464.75
2023-07-11T05:08:33.013Z,101464.72
2023-07-11T05:11:02.013Z,101469.94
2023-07-11T05:13:32.089Z,101467.91
2023-07-11T05:16:04.285Z,101467.88
2023-07-11T05:18:31.176Z,101470.50
2023-07-11T05:20:59.149Z,101466.69
2023-07-11T05:23:28.567Z,101459.47
2023-07-11T05:25:55.779Z,101466.28
2023-07-11T05:28:23.627Z,101459.81
2023-07-11T05:30:50.106Z,101456.72
2023-07-11T05:33:16.917Z,101450.97
2023-07-11T05:35:50.349Z,101445.97
2023-07-11T05:38:16.874Z,101446.34
2023-07-11T05:40:43.591Z,101440.19
2023-07-11T05:43:10.474Z,101441.28
2023-07-11T05:45:36.958Z,101439.72
2023-07-11T05:48:03.878Z,101430.19
2023-07-11T05:50:30.367Z,101439.97
2023-07-11T05:52:56.827Z,101430.78
2023-07-11T05:55:23.342Z,101428.13
2023-07-11T05:57:49.840Z,101428.44
2023-07-11T06:00:16.700Z,101424.97
2023-07-11T06:02:43.247Z,101421.16
2023-07-11T06:05:10.480Z,101422.66
2023-07-11T06:07:37.215Z,101414.28
2023-07-11T06:10:04.013Z,101421.09
2023-07-11T06:12:30.464Z,101418.03
2023-07-11T06:14:56.972Z,101422.91
2023-07-11T06:17:23.482Z,101411.13
2023-07-11T06:19:49.975Z,101419.00
2023-07-11T06:22:16.454Z,101413.22
2023-07-11T06:24:43.614Z,101412.03
2023-07-11T06:27:10.150Z,101412.38
2023-07-11T06:29:36.620Z,101410.88
2023-07-11T06:32:04.031Z,101403.25
2023-07-11T06:34:30.570Z,101404.41
2023-07-11T06:36:57.164Z,101418.47
2023-07-11T06:39:24.156Z,101413.13
2023-07-11T06:41:50.609Z,101406.66
2023-07-11T06:44:17.085Z,101401.75
2023-07-11T06:46:43.565Z,101395.28
2023-07-11T06:49:10.093Z,101405.47
2023-07-11T06:51:36.650Z,101398.25
2023-07-11T06:54:03.517Z,101402.41
2023-07-11T06:56:30.068Z,101400.09
2023-07-11T06:58:56.600Z,101398.19
2023-07-11T07:01:35.861Z,101387.16
2023-07-11T07:04:05.921Z,101390.97
2023-07-11T07:06:32.947Z,101392.47
2023-07-11T07:09:01.528Z,101385.97
2023-07-11T07:11:28.360Z,101385.47
2023-07-11T07:14:04.665Z,101385.56
2023-07-11T07:16:37.352Z,101384.41
2023-07-11T07:19:04.964Z,101389.28
2023-07-11T07:21:32.059Z,101387.38
2023-07-11T07:23:59.057Z,101385.47
2023-07-11T07:26:25.816Z,101380.91
2023-07-11T07:28:52.461Z,101376.34
2023-07-11T07:31:19.129Z,101382.00
2023-07-11T07:33:45.677Z,101374.03
2023-07-11T07:36:13.841Z,101378.19
2023-07-11T07:38:40.792Z,101372.88
2023-07-11T07:41:09.690Z,101362.56
2023-07-11T07:43:37.580Z,101368.63
2023-07-11T07:46:05.060Z,101366.72
2023-07-11T07:48:31.732Z,101359.47
2023-07-11T07:51:05.774Z,101360.22
2023-07-11T07:53:32.675Z,101362.88
2023-07-11T07:56:05.318Z,101361.72
2023-07-11T07:58:42.890Z,101359.06
2023-07-11T08:01:12.272Z,101360.56
2023-07-11T08:03:40.365Z,101362.06
2023-07-11T08:08:37.253Z,101354.81
2023-07-11T08:11:06.070Z,101351.41
2023-07-11T08:13:44.932Z,101359.72
2023-07-11T08:18:51.593Z,101355.91
2023-07-11T08:21:18.087Z,101348.69
2023-07-11T08:23:44.603Z,101351.34
2023-07-11T08:26:11.494Z,101352.84
2023-07-11T08:28:38.051Z,101350.94
2023-07-11T08:31:06.450Z,101356.25
2023-07-11T08:33:33.148Z,101350.94
2023-07-11T08:36:00.347Z,101354.31
2023-07-11T08:38:26.927Z,101331.13
2023-07-11T08:40:53.443Z,101337.94
2023-07-11T08:43:30.633Z,101329.66
2023-07-11T08:46:13.442Z,101334.13
2023-07-11T08:48:45.334Z,101334.13
2023-07-11T08:51:20.791Z,101338.25
2023-07-11T08:53:56.288Z,101334.44
2023-07-11T08:56:41.321Z,101337.09
2023-07-11T08:59:16.888Z,101335.53
2023-07-11T09:01:51.091Z,101330.63
2023-07-11T09:04:22.601Z,101325.31
2023-07-11T09:06:59.127Z,101330.97
2023-07-11T09:09:26.666Z,101330.22
2023-07-11T09:12:22.452Z,101328.31
2023-07-11T09:15:07.349Z,101329.81
2023-07-11T09:17:58.852Z,101318.75
2023-07-11T09:20:43.120Z,101314.16
2023-07-11T09:23:37.203Z,101318.31
2023-07-11T09:26:10.361Z,101315.25
2023-07-11T09:28:39.113Z,101322.47
2023-07-11T09:31:14.763Z,101317.16
2023-07-11T09:33:47.892Z,101315.25
2023-07-11T09:36:31.559Z,101310.25
2023-07-11T09:39:30.950Z,101318.22
2023-07-11T09:42:14.468Z,101318.22
2023-07-11T09:44:40.962Z,101311.75
2023-07-11T09:47:18.659Z,101319.28
2023-07-11T09:49:47.955Z,101316.63
2023-07-11T09:52:27.381Z,101309.41
2023-07-11T09:55:08.324Z,101306.34
2023-07-11T09:57:43.939Z,101309.00
2023-07-11T10:00:21.947Z,101302.53
2023-07-11T10:02:50.038Z,101314.31
2023-07-11T10:05:18.670Z,101308.56
2023-07-11T10:07:45.366Z,101309.31
2023-07-11T10:10:17.424Z,101291.44
2023-07-11T10:12:44.764Z,101291.03
2023-07-11T10:15:16.877Z,101296.66
2023-07-11T10:17:45.241Z,101294.00
2023-07-11T10:20:21.716Z,101292.84
2023-07-11T10:22:52.702Z,101282.22
2023-07-11T10:25:23.202Z,101290.19
2023-07-11T10:28:00.393Z,101288.63
2023-07-11T10:30:34.443Z,101294.34
2023-07-11T10:33:22.459Z,101281.78
2023-07-11T10:35:56.334Z,101287.13
2023-07-11T10:38:28.430Z,101286.69
2023-07-11T10:40:59.892Z,101287.84
2023-07-11T10:43:38.343Z,101284.03
2023-07-11T10:46:17.871Z,101284.03
2023-07-11T10:48:53.518Z,101282.50
2023-07-11T10:51:48.962Z,101282.88
2023-07-11T10:54:24.113Z,101274.91
2023-07-11T10:56:57.478Z,101275.66
2023-07-11T10:59:25.963Z,101274.91
2023-07-11T11:02:14.758Z,101256.28
2023-07-11T11:05:05.837Z,101259.69
2023-07-11T11:07:40.549Z,101261.91
2023-07-11T11:10:47.443Z,101269.88
2023-07-11T11:13:24.724Z,101256.59
2023-07-11T11:16:00.706Z,101252.75
2023-07-11T11:18:51.973Z,101247.44
2023-07-11T11:24:50.691Z,101239.03
2023-07-11T11:27:38.967Z,101232.53
2023-07-11T11:30:13.610Z,101232.97
2023-07-11T11:33:01.089Z,101231.78
2023-07-11T11:35:58.354Z,101234.44
2023-07-11T11:38:40.889Z,101236.69
2023-07-11T11:41:14.053Z,101229.47
2023-07-11T11:51:17.312Z,101225.63
2023-07-11T11:53:47.838Z,101231.69
2023-07-11T11:56:22.933Z,101224.44
2023-07-11T11:59:03.286Z,101225.63
2023-07-11T12:01:55.255Z,101223.81
2023-07-11T12:04:36.472Z,101215.84
2023-07-11T12:07:02.998Z,101218.81
2023-07-11T12:09:36.972Z,101216.16
2023-07-11T12:12:11.534Z,101218.81
2023-07-11T12:14:44.818Z,101210.84
2023-07-11T12:17:30.320Z,101210.84
2023-07-11T12:20:01.459Z,101193.38
2023-07-11T12:22:31.681Z,101194.88
2023-07-11T12:25:01.708Z,101205.81
2023-07-11T12:27:28.162Z,101204.34
2023-07-11T12:29:55.317Z,101206.59
2023-07-11T12:32:33.839Z,101208.09
2023-07-11T12:35:06.546Z,101206.19
2023-07-11T12:37:56.063Z,101199.38
2023-07-11T12:40:34.753Z,101198.94
2023-07-11T12:43:03.759Z,101190.94
2023-07-11T12:45:55.199Z,101192.03
2023-07-11T12:48:26.049Z,101191.56
2023-07-11T12:50:55.231Z,101197.66
2023-07-11T12:53:23.099Z,101198.41
2023-07-11T12:55:54.772Z,101185.09
2023-07-11T12:58:29.710Z,101173.69
2023-07-11T13:00:58.049Z,101188.50
2023-07-11T13:03:37.485Z,101176.38
2023-07-11T13:06:19.777Z,101177.13
2023-07-11T13:08:48.309Z,101185.41
2023-07-11T13:11:25.573Z,101175.50
2023-07-11T13:13:53.084Z,101169.78
2023-07-11T13:16:34.834Z,101171.28
2023-07-11T13:19:04.806Z,101166.69
2023-07-11T13:21:31.461Z,101172.34
2023-07-11T13:24:00.498Z,101159.34
2023-07-11T13:26:30.472Z,101170.31
2023-07-11T13:29:20.146Z,101167.66
2023-07-11T13:31:48.761Z,101170.72
2023-07-11T13:34:21.454Z,101166.47
2023-07-11T13:36:50.489Z,101166.81
2023-07-11T13:39:23.337Z,101164.03
2023-07-11T13:41:55.925Z,101160.50
2023-07-11T13:44:30.455Z,101157.09
2023-07-11T13:47:00.468Z,101152.09
2023-07-11T13:49:38.603Z,101147.94
2023-07-11T13:52:05.670Z,101148.69
2023-07-11T13:54:36.092Z,101143.66
2023-07-11T13:57:04.464Z,101151.16
2023-07-11T14:02:02.126Z,101133.38
2023-07-11T14:04:34.352Z,101147.41
2023-07-11T14:07:00.994Z,101136.13
2023-07-11T14:09:28.271Z,101132.19
2023-07-11T14:11:55.495Z,101130.28
2023-07-11T14:14:37.815Z,101121.88
2023-07-11T14:17:14.163Z,101126.75
2023-07-11T14:19:40.642Z,101124.81
2023-07-11T14:22:14.788Z,101127.38
2023-07-11T14:24:47.315Z,101128.44
2023-07-11T14:27:16.892Z,101120.03
2023-07-11T14:29:43.390Z,101117.78
2023-07-11T14:32:16.256Z,101115.75
2023-07-11T14:34:43.317Z,101107.34
2023-07-11T14:37:15.633Z,101114.47
2023-07-11T14:39:42.318Z,101109.88
2023-07-11T14:42:41.309Z,101104.88
2023-07-11T14:45:18.152Z,101101.78
2023-07-11T14:47:47.351Z,101104.47
2023-07-11T14:50:20.352Z,101103.25
2023-07-11T14:52:47.898Z,101102.84
2023-07-11T15:00:22.876Z,101089.09
2023-07-11T15:02:50.890Z,101095.91
2023-07-11T15:10:27.029Z,101091.91
2023-07-11T15:15:31.064Z,101083.25
2023-07-11T15:17:58.803Z,101094.22
2023-07-11T15:20:26.420Z,101086.66
2023-07-11T15:22:55.402Z,101086.34
2023-07-11T15:25:36.972Z,101082.63
2023-07-11T15:28:18.670Z,101072.41
2023-07-11T15:30:46.918Z,101073.91
2023-07-11T15:35:52.410Z,101071.66
2023-07-11T15:38:20.716Z,101080.72
2023-07-11T15:40:50.260Z,101083.38
2023-07-11T15:43:25.979Z,101083.69
2023-07-11T15:45:52.575Z,101075.28
2023-07-11T15:48:19.359Z,101077.50
2023-07-11T15:50:46.076Z,101072.94
2023-07-11T15:53:13.257Z,101072.19
2023-07-11T15:55:40.817Z,101069.09
2023-07-11T15:58:15.847Z,101065.13
2023-07-11T16:00:42.614Z,101064.59
2023-07-11T16:03:20.584Z,101061.25
2023-07-11T16:05:49.568Z,101067.94
2023-07-11T16:08:22.332Z,101058.47
2023-07-11T16:10:51.553Z,101065.81
2023-07-11T16:13:22.193Z,101061.38
2023-07-11T16:15:50.219Z,101059.25
2023-07-11T16:18:20.653Z,101054.50
2023-07-11T16:20:48.564Z,101046.19
2023-07-11T16:23:17.843Z,101047.66
2023-07-11T16:25:46.289Z,101052.53
2023-07-11T16:28:18.543Z,101041.91
2023-07-11T16:30:45.676Z,101034.66
2023-07-11T16:33:24.168Z,101041.91
2023-07-11T16:35:52.916Z,101034.22
2023-07-11T16:38:25.472Z,101032.31
2023-07-11T16:40:52.559Z,101032.31
2023-07-11T16:43:21.468Z,101023.91
2023-07-11T16:45:48.470Z,101022.41
2023-07-11T16:48:20.632Z,101025.78
2023-07-11T16:50:47.093Z,101027.72
2023-07-11T16:53:23.882Z,101026.56
2023-07-11T16:55:54.361Z,101033.78
2023-07-11T16:58:27.544Z,101033.06
2023-07-11T17:00:55.297Z,101038.38
2023-07-11T17:03:23.130Z,101032.31
2023-07-11T17:05:50.995Z,101026.25
2023-07-11T17:08:19.724Z,101026.66
2023-07-11T17:10:55.410Z,101018.69
2023-07-11T17:13:23.563Z,101026.25
2023-07-11T17:15:51.546Z,101021.25
2023-07-11T17:18:19.427Z,101017.94
2023-07-11T17:20:46.580Z,101014.56
2023-07-11T17:23:18.790Z,101011.88
2023-07-11T17:25:46.433Z,101007.59
2023-07-11T17:28:23.024Z,101014.00
2023-07-11T17:30:49.677Z,101011.75
2023-07-11T17:33:18.916Z,101011.00
2023-07-11T17:35:46.505Z,101015.91
2023-07-11T17:38:14.720Z,101016.66
2023-07-11T17:40:42.545Z,101014.41
2023-07-11T17:43:19.912Z,101001.81
2023-07-11T17:46:01.550Z,101009.81
2023-07-11T17:48:34.560Z,101001.09
2023-07-11T17:51:02.653Z,101004.84
2023-07-11T17:53:30.919Z,100996.41
2023-07-11T17:55:57.483Z,100993.72
2023-07-11T17:58:29.962Z,100995.97
2023-07-11T18:00:59.115Z,100988.72
2023-07-11T18:03:27.729Z,100976.59
2023-07-11T18:05:55.069Z,100973.19
2023-07-11T18:08:23.789Z,100970.50
2023-07-11T18:10:53.504Z,100972.44
2023-07-11T18:13:20.799Z,100973.63
2023-07-11T18:15:49.283Z,100972.88
2023-07-11T18:18:27.208Z,100965.63
2023-07-11T18:20:56.339Z,100964.16
2023-07-11T18:23:23.018Z,100957.66
2023-07-11T18:25:52.799Z,100959.56
2023-07-11T18:28:21.374Z,100948.16
2023-07-11T18:30:48.664Z,100936.34
2023-07-11T18:33:15.673Z,100947.75
2023-07-11T18:35:42.628Z,100954.53
2023-07-11T18:38:21.417Z,100940.47
2023-07-11T18:40:49.243Z,100926.88
2023-07-11T18:43:15.754Z,100925.69
2023-07-11T18:45:45.796Z,100934.44
2023-07-11T18:48:13.690Z,100926.44
2023-07-11T18:50:41.567Z,100923.03
2023-07-11T18:53:08.799Z,100923.03
2023-07-11T18:55:35.831Z,100920.81
2023-07-11T18:58:03.875Z,100919.63
2023-07-11T19:00:36.883Z,100932.19
2023-07-11T19:03:06.886Z,100923.47
2023-07-11T19:05:34.032Z,100925.38
2023-07-11T19:08:00.769Z,100931.47
2023-07-11T19:10:31.575Z,100938.69
2023-07-11T19:12:58.533Z,100941.34
2023-07-11T19:15:28.155Z,100937.53
2023-07-11T19:18:06.709Z,100928.47
2023-07-11T19:20:35.999Z,100914.84
2023-07-11T19:23:22.627Z,100908.47
2023-07-11T19:25:50.649Z,100907.00
2023-07-11T19:28:31.372Z,100911.16
2023-07-11T19:31:02.550Z,100904.66
2023-07-11T19:33:29.598Z,100908.06
2023-07-11T19:36:00.381Z,100917.22
2023-07-11T19:38:29.547Z,100909.22
2023-07-11T19:40:56.798Z,100916.03
2023-07-11T19:43:23.908Z,100924.03
2023-07-11T19:45:53.500Z,100932.44
2023-07-11T19:48:25.425Z,100935.84
2023-07-11T19:51:01.561Z,100948.00
2023-07-11T19:53:34.841Z,100953.75
2023-07-11T19:56:21.881Z,100962.47
2023-07-11T19:58:48.390Z,100959.34
2023-07-11T20:01:14.935Z,100961.31
2023-07-11T20:03:41.536Z,100976.06
2023-07-11T20:06:17.680Z,100990.59
2023-07-11T20:08:45.287Z,100991.31
2023-07-11T20:11:11.798Z,100990.59
2023-07-11T20:13:38.373Z,101000.50
2023-07-11T20:16:17.188Z,101004.63
2023-07-11T20:18:43.938Z,100985.69
2023-07-11T20:21:20.100Z,100979.19
2023-07-11T20:23:51.012Z,100999.75
2023-07-11T20:26:28.275Z,101003.59
2023-07-11T20:28:57.872Z,100994.44
2023-07-11T20:31:24.958Z,100979.34
2023-07-11T20:33:51.526Z,100992.63
2023-07-11T20:36:30.829Z,101007.88
2023-07-11T20:38:58.227Z,101009.78
2023-07-11T20:41:25.730Z,100982.41
2023-07-11T20:43:52.305Z,100958.47
2023-07-11T20:46:21.506Z,100999.53
2023-07-11T20:48:49.160Z,100991.38
2023-07-11T20:51:18.039Z,101001.16
2023-07-11T20:53:48.187Z,101026.16
2023-07-11T20:56:21.854Z,101050.56
2023-07-11T20:58:49.728Z,101049.41
2023-07-11T21:01:18.482Z,101040.78
2023-07-11T21:03:45.987Z,101038.69
2023-07-11T21:06:33.407Z,101006.41
2023-07-11T21:09:02.394Z,100988.66
2023-07-11T21:11:29.563Z,100997.81
2023-07-11T21:13:57.138Z,101022.19
2023-07-11T21:16:32.763Z,101015.09
2023-07-11T21:19:01.546Z,101007.84
2023-07-11T21:21:28.205Z,101003.06
2023-07-11T21:23:54.714Z,100982.06
2023-07-11T21:26:26.213Z,100968.47
2023-07-11T21:28:53.914Z,100961.66
2023-07-11T21:31:21.007Z,100944.94
2023-07-11T21:33:48.318Z,100946.72
2023-07-11T21:36:22.672Z,100970.28
2023-07-11T21:38:50.531Z,100974.84
2023-07-11T21:41:18.809Z,100982.41
2023-07-11T21:43:45.876Z,100992.63
2023-07-11T21:46:25.712Z,100991.88
2023-07-11T21:48:52.364Z,100978.66
2023-07-11T21:51:19.516Z,100981.03
2023-07-11T21:53:46.139Z,100971.13
2023-07-11T21:56:20.254Z,100971.13
2023-07-11T21:58:46.824Z,100966.66
2023-07-11T22:01:13.722Z,100972.72
2023-07-11T22:03:40.888Z,100969.31
2023-07-11T22:06:28.281Z,100970.81
2023-07-11T22:08:55.024Z,100971.97
2023-07-11T22:11:21.564Z,100971.56
2023-07-11T22:13:48.986Z,100962.53
2023-07-11T22:16:22.009Z,100953.81
2023-07-11T22:18:49.439Z,100950.81
2023-07-11T22:21:18.206Z,100956.91
2023-07-11T22:23:44.724Z,100960.75
2023-07-11T22:26:13.487Z,100954.69
2023-07-11T22:28:40.049Z,100949.75
2023-07-11T22:31:07.144Z,100957.00
2023-07-11T22:33:33.767Z,100961.56
2023-07-11T22:36:00.577Z,100957.44
2023-07-11T22:38:27.040Z,100960.09
2023-07-11T22:40:53.613Z,100967.34
2023-07-11T22:43:22.529Z,100967.75
2023-07-11T22:45:52.478Z,100971.16
2023-07-11T22:48:21.646Z,100976.50
2023-07-11T22:50:49.693Z,100985.22
2023-07-11T22:53:19.280Z,100979.59
2023-07-11T22:55:50.468Z,100981.06
2023-07-11T22:58:24.738Z,100984.19
2023-07-11T23:00:52.886Z,100981.94
2023-07-11T23:03:20.022Z,100978.53
2023-07-11T23:05:47.245Z,100977.06
2023-07-11T23:08:16.581Z,100989.91
2023-07-11T23:10:44.657Z,100990.66
2023-07-11T23:13:12.054Z,100994.50
2023-07-11T23:15:39.478Z,100997.91
2023-07-11T23:18:06.191Z,100999.53
2023-07-11T23:20:37.353Z,100993.75
2023-07-11T23:23:04.992Z,100983.94
2023-07-11T23:25:32.498Z,100978.34
2023-07-11T23:28:00.462Z,100976.84
2023-07-11T23:30:33.252Z,100969.31
2023-07-11T23:33:00.319Z,100962.50
2023-07-11T23:35:33.071Z,100953.34
2023-07-11T23:38:01.364Z,100952.59
2023-07-11T23:40:45.608Z,100941.63
2023-07-11T23:43:39.101Z,100942.38
2023-07-11T23:46:32.057Z,100939.31
2023-07-11T23:48:59.208Z,100937.69
2023-07-11T23:51:28.940Z,100944.63
2023-07-11T23:53:55.886Z,100951.00
2023-07-11T23:56:25.184Z,100957.06
2023-07-11T23:58:52.314Z,100952.16
